Ashland, KS

4:04 PM CST on December 17, 2014 (GMT -0600)
Southern Ford County | Change Station
CLOSE
Current Station
Personal Weather Station
Location: Bloom, KS
Elevation: 2591 ft
Nearby Weather Stations

Elev 2591 ft 37.49 °N, 99.96 °W | Updated 4 minutes ago

Overcast
Overcast
33.3 °F
Feels Like 22 °F
N
19.0
Wind Variable Wind from SE

Today
High -- | Low -- °F
--% Chance of Precip.
Yesterday
High -- | Low -- °F
Precip. -- in
7:46 AM 5:23 PM
Waning Crescent, 19% visible
Pressure 30.03 in
Visibility 8.0 miles
Clouds Overcast 900 ft
Windchill 22 °F
Dew Point 30 °F
Humidity 87%
Rainfall 0.00 in
Snow Depth Not available.
UV 0 out of 12
Pollen .10 out of 12
Air Quality Not available.
Flu Activity Not available.
SPECI KDDC 172140Z AUTO 14013KT 8SM OVC009 01/M02 A3003 RMK AO2 T00061022

More Conditions Fewer Conditions

Pressure 30.03 in
Visibility 8.0 miles
Clouds Overcast 900 ft
Windchill 22 °F
Dew Point 30 °F
Humidity 87%
Rainfall 0.00 in
Snow Depth Not available.
UV 0 out of 12
Pollen .10 out of 12
Air Quality Not available.
Flu Activity Not available.
SPECI KDDC 172140Z AUTO 14013KT 8SM OVC009 01/M02 A3003 RMK AO2 T00061022

More Conditions Fewer Conditions

10-Day Weather Forecast

Almanac

Astronomy

Dec. 17, 2014 Rise Set
Actual Time
Civil Twilight
Nautical Twilight
Astronomical Twilight
Moon
Length of Visible Light
Length of Day
Tomorrow will be .
, % of the Moon is Illuminated

Today's Extremes

State Highs State Lows

Community

WunderPhotos

Upload Photos

1,778,808 photos uploaded!

WunderBlogs® & News

Nearby

Air Quality

  Air Quality AQ Index Pollutant
Not available.

Snow Depth

Station Depth Elevation

Earthquake Activity

City Distance Mag. Time & Date
Minimum magnitude displayed is 2.5.

Coastal Water Temperatures

Place Temperature

Nearby Weather Stations